createdAt,value
2023-01-21T00:00:03.037Z,1.58
2023-01-21T00:01:03.004Z,1.53
2023-01-21T00:02:03.031Z,1.55
2023-01-21T00:03:03.065Z,1.53
2023-01-21T00:04:02.957Z,1.48
2023-01-21T00:05:02.956Z,1.42
2023-01-21T00:06:02.955Z,1.48
2023-01-21T00:07:02.927Z,1.44
2023-01-21T00:08:03.006Z,1.45
2023-01-21T00:09:02.897Z,1.44
2023-01-21T00:10:02.909Z,1.48
2023-01-21T00:11:02.886Z,1.50
2023-01-21T00:12:02.860Z,1.50
2023-01-21T00:13:02.851Z,1.44
2023-01-21T00:14:02.840Z,1.48
2023-01-21T00:15:02.822Z,1.40
2023-01-21T00:16:02.895Z,1.41
2023-01-21T00:17:02.792Z,1.35
2023-01-21T00:18:02.812Z,1.38
2023-01-21T00:19:02.772Z,1.38
2023-01-21T00:20:02.764Z,1.38
2023-01-21T00:21:02.764Z,1.40
2023-01-21T00:22:02.744Z,1.38
2023-01-21T00:23:02.739Z,1.38
2023-01-21T00:24:02.714Z,1.40
2023-01-21T00:25:02.690Z,1.35
2023-01-21T00:26:02.715Z,1.32
2023-01-21T00:27:02.675Z,1.34
2023-01-21T00:28:02.685Z,1.32
2023-01-21T00:29:02.644Z,1.35
2023-01-21T00:30:02.635Z,1.31
2023-01-21T00:31:02.908Z,1.32
2023-01-21T00:32:02.610Z,1.32
2023-01-21T00:33:02.596Z,1.32
2023-01-21T00:34:02.605Z,1.34
2023-01-21T00:35:02.571Z,1.28
2023-01-21T00:36:02.568Z,1.31
2023-01-21T00:37:02.548Z,1.23
2023-01-21T00:38:02.531Z,1.22
2023-01-21T00:39:02.515Z,1.22
2023-01-21T00:40:02.517Z,1.20
2023-01-21T00:41:02.504Z,1.20
2023-01-21T00:42:02.484Z,1.19
2023-01-21T00:43:02.474Z,1.22
2023-01-21T00:44:02.465Z,1.17
2023-01-21T00:45:02.447Z,1.16
2023-01-21T00:46:02.556Z,1.13
2023-01-21T00:47:02.426Z,1.12
2023-01-21T00:48:02.407Z,1.08
2023-01-21T00:49:02.392Z,1.06
2023-01-21T00:50:02.410Z,1.05
2023-01-21T00:51:02.403Z,1.01
2023-01-21T00:52:02.355Z,1.02
2023-01-21T00:53:02.348Z,0.99
2023-01-21T00:54:02.332Z,0.92
2023-01-21T00:55:02.316Z,0.94
2023-01-21T00:56:02.331Z,0.92
2023-01-21T00:57:02.293Z,0.84
2023-01-21T00:58:02.281Z,0.83
2023-01-21T00:59:02.269Z,0.78
2023-01-21T01:00:02.257Z,0.76
2023-01-21T01:01:02.266Z,0.76
2023-01-21T01:02:02.233Z,0.74
2023-01-21T01:03:02.278Z,0.74
2023-01-21T01:04:02.206Z,0.70
2023-01-21T01:05:02.189Z,0.66
2023-01-21T01:06:02.235Z,0.66
2023-01-21T01:07:02.169Z,0.63
2023-01-21T01:08:02.156Z,0.63
2023-01-21T01:09:02.162Z,0.60
2023-01-21T01:10:02.149Z,0.60
2023-01-21T01:11:02.157Z,0.59
2023-01-21T01:12:02.123Z,0.56
2023-01-21T01:13:02.100Z,0.55
2023-01-21T01:14:02.079Z,0.52
2023-01-21T01:15:02.070Z,0.52
2023-01-21T01:16:02.101Z,0.50
2023-01-21T01:17:02.055Z,0.50
2023-01-21T01:18:02.029Z,0.47
2023-01-21T01:19:02.013Z,0.44
2023-01-21T01:20:02.001Z,0.43
2023-01-21T01:21:01.989Z,0.41
2023-01-21T01:22:02.024Z,0.41
2023-01-21T01:23:01.963Z,0.34
2023-01-21T01:24:01.954Z,0.29
2023-01-21T01:25:01.940Z,0.29
2023-01-21T01:26:01.925Z,0.26
2023-01-21T01:27:01.925Z,0.25
2023-01-21T01:28:01.902Z,0.25
2023-01-21T01:29:01.885Z,0.25
2023-01-21T01:30:01.873Z,0.21
2023-01-21T01:31:01.949Z,0.23
2023-01-21T01:32:01.863Z,0.19
2023-01-21T01:33:01.832Z,0.16
2023-01-21T01:34:01.865Z,0.15
2023-01-21T01:35:01.812Z,0.16
2023-01-21T01:36:01.801Z,0.12
2023-01-21T01:37:01.799Z,0.07
2023-01-21T01:38:01.799Z,0.07
2023-01-21T01:39:01.762Z,0.07
2023-01-21T01:40:01.749Z,0.01
2023-01-21T01:41:01.748Z,0.01
2023-01-21T01:42:01.739Z,0.00
2023-01-21T01:43:01.707Z,0.01
2023-01-21T01:44:11.113Z,-0.03
2023-01-21T01:45:01.718Z,-0.06
2023-01-21T01:46:01.766Z,-0.11
2023-01-21T01:47:01.683Z,-0.10
2023-01-21T01:48:01.659Z,-0.14
2023-01-21T01:49:01.650Z,-0.13
2023-01-21T01:50:01.648Z,-0.23
2023-01-21T01:51:01.680Z,-0.29
2023-01-21T01:52:01.625Z,-0.31
2023-01-21T01:53:01.598Z,-0.32
2023-01-21T01:54:01.606Z,-0.35
2023-01-21T01:55:01.568Z,-0.35
2023-01-21T01:56:01.548Z,-0.38
2023-01-21T01:57:01.582Z,-0.38
2023-01-21T01:58:01.521Z,-0.38
2023-01-21T01:59:01.555Z,-0.41
2023-01-21T02:00:01.541Z,-0.44
2023-01-21T02:01:01.504Z,-0.46
2023-01-21T02:02:01.594Z,-0.44
2023-01-21T02:03:01.575Z,-0.47
2023-01-21T02:04:01.459Z,-0.49
2023-01-21T02:05:01.433Z,-0.50
2023-01-21T02:06:01.445Z,-0.47
2023-01-21T02:07:01.446Z,-0.52
2023-01-21T02:08:01.440Z,-0.52
2023-01-21T02:09:01.376Z,-0.53
2023-01-21T02:10:01.404Z,-0.56
2023-01-21T02:11:01.367Z,-0.56
2023-01-21T02:12:01.390Z,-0.57
2023-01-21T02:13:01.338Z,-0.57
2023-01-21T02:14:01.316Z,-0.59
2023-01-21T02:15:01.318Z,-0.59
2023-01-21T02:16:01.406Z,-0.62
2023-01-21T02:17:01.316Z,-0.64
2023-01-21T02:18:01.274Z,-0.65
2023-01-21T02:19:01.260Z,-0.68
2023-01-21T02:20:01.248Z,-0.71
2023-01-21T02:21:01.230Z,-0.70
2023-01-21T02:22:01.233Z,-0.68
2023-01-21T02:23:01.214Z,-0.70
2023-01-21T02:24:01.197Z,-0.71
2023-01-21T02:25:01.180Z,-0.68
2023-01-21T02:26:01.191Z,-0.65
2023-01-21T02:27:01.173Z,-0.67
2023-01-21T02:28:01.148Z,-0.67
2023-01-21T02:29:01.140Z,-0.68
2023-01-21T02:30:01.123Z,-0.70
2023-01-21T02:31:01.211Z,-0.70
2023-01-21T02:32:01.122Z,-0.68
2023-01-21T02:33:01.103Z,-0.72
2023-01-21T02:34:01.084Z,-0.75
2023-01-21T02:35:01.070Z,-0.74
2023-01-21T02:36:01.049Z,-0.74
2023-01-21T02:37:01.037Z,-0.75
2023-01-21T02:38:01.042Z,-0.75
2023-01-21T02:39:01.010Z,-0.75
2023-01-21T02:40:01.022Z,-0.75
2023-01-21T02:41:00.992Z,-0.75
2023-01-21T02:42:00.998Z,-0.77
2023-01-21T02:43:00.976Z,-0.78
2023-01-21T02:44:00.944Z,-0.75
2023-01-21T02:45:00.942Z,-0.78
2023-01-21T02:46:00.929Z,-0.82
2023-01-21T02:47:00.915Z,-0.78
2023-01-21T02:48:00.927Z,-0.77
2023-01-21T02:49:00.891Z,-0.77
2023-01-21T02:50:00.890Z,-0.75
2023-01-21T02:51:00.888Z,-0.80
2023-01-21T02:52:00.863Z,-0.75
2023-01-21T02:53:00.861Z,-0.85
2023-01-21T02:54:00.834Z,-0.82
2023-01-21T02:55:00.842Z,-0.85
2023-01-21T02:56:00.805Z,-0.90
2023-01-21T02:57:00.788Z,-0.86
2023-01-21T02:58:00.814Z,-0.89
2023-01-21T02:59:00.766Z,-0.91
2023-01-21T03:00:00.749Z,-0.86
2023-01-21T03:01:00.781Z,-0.90
2023-01-21T03:02:00.804Z,-0.90
2023-01-21T03:03:00.743Z,-0.86
2023-01-21T03:04:00.708Z,-0.89
2023-01-21T03:05:00.693Z,-0.90
2023-01-21T03:06:00.682Z,-0.89
2023-01-21T03:07:00.684Z,-0.93
2023-01-21T03:08:00.667Z,-0.93
2023-01-21T03:09:00.640Z,-0.90
2023-01-21T03:10:00.637Z,-0.96
2023-01-21T03:11:00.623Z,-0.90
2023-01-21T03:12:00.608Z,-0.94
2023-01-21T03:13:00.626Z,-0.93
2023-01-21T03:14:00.604Z,-0.96
2023-01-21T03:15:00.569Z,-1.02
2023-01-21T03:16:00.606Z,-1.05
2023-01-21T03:17:00.545Z,-1.05
2023-01-21T03:18:00.551Z,-1.09
2023-01-21T03:19:00.519Z,-1.08
2023-01-21T03:20:00.519Z,-1.11
2023-01-21T03:21:00.497Z,-1.14
2023-01-21T03:22:00.481Z,-1.11
2023-01-21T03:23:00.502Z,-1.14
2023-01-21T03:24:00.486Z,-1.15
2023-01-21T03:25:00.450Z,-1.15
2023-01-21T03:26:00.452Z,-1.17
2023-01-21T03:27:00.426Z,-1.17
2023-01-21T03:28:00.427Z,-1.20
2023-01-21T03:29:00.397Z,-1.23
2023-01-21T03:30:00.410Z,-1.26
2023-01-21T03:31:00.442Z,-1.30
2023-01-21T03:32:00.372Z,-1.29
2023-01-21T03:33:00.365Z,-1.30
2023-01-21T03:34:00.371Z,-1.29
2023-01-21T03:35:00.327Z,-1.33
2023-01-21T03:36:00.312Z,-1.33
2023-01-21T03:37:00.296Z,-1.33
2023-01-21T03:38:00.302Z,-1.32
2023-01-21T03:39:00.281Z,-1.35
2023-01-21T03:40:00.259Z,-1.35
2023-01-21T03:41:00.259Z,-1.37
2023-01-21T03:42:00.245Z,-1.40
2023-01-21T03:43:00.251Z,-1.41
2023-01-21T03:44:00.222Z,-1.40
2023-01-21T03:45:00.244Z,-1.37
2023-01-21T03:46:00.273Z,-1.40
2023-01-21T03:47:00.182Z,-1.38
2023-01-21T03:48:00.181Z,-1.43
2023-01-21T03:49:00.158Z,-1.41
2023-01-21T03:50:00.161Z,-1.47
2023-01-21T03:51:00.165Z,-1.46
2023-01-21T03:52:00.127Z,-1.44
2023-01-21T03:53:00.120Z,-1.48
2023-01-21T03:54:00.122Z,-1.51
2023-01-21T03:55:00.138Z,-1.47
2023-01-21T03:56:00.097Z,-1.51
2023-01-21T03:57:00.087Z,-1.51
2023-01-21T03:58:00.104Z,-1.54
2023-01-21T03:59:00.034Z,-1.51
2023-01-21T04:00:00.026Z,-1.50
2023-01-21T04:01:00.065Z,-1.51
2023-01-21T04:02:00.081Z,-1.54
2023-01-21T04:02:59.986Z,-1.59
2023-01-21T04:03:59.983Z,-1.61
2023-01-21T04:04:59.960Z,-1.64
2023-01-21T04:05:59.943Z,-1.64
2023-01-21T04:06:59.933Z,-1.64
2023-01-21T04:07:59.926Z,-1.64
2023-01-21T04:08:59.922Z,-1.68
2023-01-21T04:09:59.897Z,-1.72
2023-01-21T04:10:59.889Z,-1.74
2023-01-21T04:11:59.873Z,-1.77
2023-01-21T04:12:59.865Z,-1.77
2023-01-21T04:13:59.860Z,-1.76
2023-01-21T04:14:59.835Z,-1.79
2023-01-21T04:15:59.830Z,-1.80
2023-01-21T04:16:59.822Z,-1.79
2023-01-21T04:17:59.837Z,-1.82
2023-01-21T04:18:59.802Z,-1.79
2023-01-21T04:19:59.777Z,-1.83
2023-01-21T04:20:59.759Z,-1.82
2023-01-21T04:21:59.749Z,-1.82
2023-01-21T04:22:59.739Z,-1.77
2023-01-21T04:23:59.737Z,-1.82
2023-01-21T04:24:59.717Z,-1.87
2023-01-21T04:25:59.710Z,-1.98
2023-01-21T04:26:59.699Z,-2.10
2023-01-21T04:27:59.673Z,-2.19
2023-01-21T04:28:59.683Z,-2.26
2023-01-21T04:29:59.650Z,-2.30
2023-01-21T04:30:59.731Z,-2.35
2023-01-21T04:31:59.645Z,-2.40
2023-01-21T04:32:59.614Z,-2.42
2023-01-21T04:33:59.638Z,-2.44
2023-01-21T04:34:59.590Z,-2.45
2023-01-21T04:35:59.599Z,-2.44
2023-01-21T04:36:59.576Z,-2.52
2023-01-21T04:37:59.565Z,-2.50
2023-01-21T04:38:59.552Z,-2.58
2023-01-21T04:39:59.530Z,-2.53
2023-01-21T04:40:59.519Z,-2.59
2023-01-21T04:41:59.499Z,-2.58
2023-01-21T04:42:59.492Z,-2.59
2023-01-21T04:43:59.498Z,-2.55
2023-01-21T04:44:59.471Z,-2.55
2023-01-21T04:45:59.570Z,-2.56
2023-01-21T04:46:59.440Z,-2.58
2023-01-21T04:47:59.429Z,-2.58
2023-01-21T04:48:59.434Z,-2.56
2023-01-21T04:49:59.426Z,-2.52
2023-01-21T04:50:59.436Z,-2.50
2023-01-21T04:51:59.375Z,-2.52
2023-01-21T04:52:59.377Z,-2.50
2023-01-21T04:53:59.374Z,-2.50
2023-01-21T04:54:59.339Z,-2.50
2023-01-21T04:55:59.337Z,-2.48
2023-01-21T04:56:59.319Z,-2.48
2023-01-21T04:57:59.307Z,-2.53
2023-01-21T04:58:59.319Z,-2.53
2023-01-21T04:59:59.280Z,-2.55
2023-01-21T05:00:59.280Z,-2.50
2023-01-21T05:01:59.284Z,-2.53
2023-01-21T05:02:59.247Z,-2.55
2023-01-21T05:03:59.248Z,-2.50
2023-01-21T05:04:59.218Z,-2.52
2023-01-21T05:05:59.230Z,-2.52
2023-01-21T05:06:59.202Z,-2.53
2023-01-21T05:07:59.192Z,-2.55
2023-01-21T05:08:59.191Z,-2.53
2023-01-21T05:09:59.163Z,-2.53
2023-01-21T05:10:59.147Z,-2.52
2023-01-21T05:11:59.132Z,-2.48
2023-01-21T05:12:59.121Z,-2.53
2023-01-21T05:13:59.132Z,-2.52
2023-01-21T05:14:59.103Z,-2.53
2023-01-21T05:15:59.132Z,-2.52
2023-01-21T05:16:59.237Z,-2.53
2023-01-21T05:17:59.061Z,-2.52
2023-01-21T05:18:59.069Z,-2.47
2023-01-21T05:19:59.057Z,-2.47
2023-01-21T05:20:59.031Z,-2.44
2023-01-21T05:21:59.027Z,-2.47
2023-01-21T05:22:59.027Z,-2.41
2023-01-21T05:23:59.001Z,-2.38
2023-01-21T05:24:58.979Z,-2.40
2023-01-21T05:25:58.966Z,-2.42
2023-01-21T05:26:58.955Z,-2.45
2023-01-21T05:27:58.938Z,-2.50
2023-01-21T05:28:58.954Z,-2.47
2023-01-21T05:29:58.925Z,-2.45
2023-01-21T05:30:58.979Z,-2.48
2023-01-21T05:31:58.972Z,-2.52
2023-01-21T05:32:58.875Z,-2.53
2023-01-21T05:33:58.887Z,-2.56
2023-01-21T05:34:58.851Z,-2.53
2023-01-21T05:35:58.836Z,-2.56
2023-01-21T05:36:58.828Z,-2.55
2023-01-21T05:38:00.386Z,-2.60
2023-01-21T05:38:58.821Z,-2.55
2023-01-21T05:39:58.795Z,-2.56
2023-01-21T05:40:58.781Z,-2.53
2023-01-21T05:41:58.760Z,-2.56
2023-01-21T05:42:58.758Z,-2.53
2023-01-21T05:43:58.757Z,-2.59
2023-01-21T05:44:58.726Z,-2.60
2023-01-21T05:45:58.741Z,-2.62
2023-01-21T05:46:58.700Z,-2.56
2023-01-21T05:47:58.687Z,-2.56
2023-01-21T05:48:58.680Z,-2.58
2023-01-21T05:49:58.679Z,-2.59
2023-01-21T05:50:58.740Z,-2.59
2023-01-21T05:51:58.651Z,-2.56
2023-01-21T05:52:58.633Z,-2.55
2023-01-21T05:53:58.638Z,-2.50
2023-01-21T05:55:02.203Z,-2.53
2023-01-21T05:55:58.594Z,-2.56
2023-01-21T05:56:58.576Z,-2.53
2023-01-21T05:57:58.565Z,-2.55
2023-01-21T05:58:58.553Z,-2.50
2023-01-21T05:59:58.585Z,-2.53
2023-01-21T06:00:58.529Z,-2.53
2023-01-21T06:01:58.521Z,-2.53
2023-01-21T06:02:58.506Z,-2.53
2023-01-21T06:03:58.545Z,-2.56
2023-01-21T06:04:58.515Z,-2.56
2023-01-21T06:05:58.474Z,-2.56
2023-01-21T06:06:58.457Z,-2.60
2023-01-21T06:07:58.446Z,-2.63
2023-01-21T06:08:58.431Z,-2.60
2023-01-21T06:09:58.462Z,-2.60
2023-01-21T06:10:58.405Z,-2.58
2023-01-21T06:11:58.393Z,-2.56
2023-01-21T06:12:58.383Z,-2.56
2023-01-21T06:13:58.378Z,-2.53
2023-01-21T06:14:58.369Z,-2.58
2023-01-21T06:15:58.427Z,-2.56
2023-01-21T06:16:58.333Z,-2.58
2023-01-21T06:17:58.318Z,-2.53
2023-01-21T06:18:58.312Z,-2.52
2023-01-21T06:19:58.315Z,-2.50
2023-01-21T06:20:58.286Z,-2.52
2023-01-21T06:21:58.273Z,-2.52
2023-01-21T06:22:58.260Z,-2.50
2023-01-21T06:23:58.252Z,-2.52
2023-01-21T06:24:58.255Z,-2.48
2023-01-21T06:25:58.236Z,-2.47
2023-01-21T06:26:58.214Z,-2.48
2023-01-21T06:27:58.205Z,-2.47
2023-01-21T06:28:58.195Z,-2.48
2023-01-21T06:29:58.190Z,-2.47
2023-01-21T06:30:58.319Z,-2.47
2023-01-21T06:31:58.285Z,-2.48
2023-01-21T06:32:58.142Z,-2.48
2023-01-21T06:33:58.145Z,-2.41
2023-01-21T06:34:58.134Z,-2.48
2023-01-21T06:35:58.108Z,-2.48
2023-01-21T06:36:58.088Z,-2.41
2023-01-21T06:37:58.079Z,-2.48
2023-01-21T06:38:58.068Z,-2.44
2023-01-21T06:39:58.070Z,-2.44
2023-01-21T06:40:58.037Z,-2.45
2023-01-21T06:41:58.056Z,-2.44
2023-01-21T06:42:58.017Z,-2.42
2023-01-21T06:43:58.002Z,-2.47
2023-01-21T06:44:58.007Z,-2.47
2023-01-21T06:45:58.098Z,-2.47
2023-01-21T06:47:01.722Z,-2.44
2023-01-21T06:47:57.958Z,-2.42
2023-01-21T06:48:57.941Z,-2.42
2023-01-21T06:49:57.928Z,-2.44
2023-01-21T06:50:57.984Z,-2.45
2023-01-21T06:51:57.903Z,-2.40
2023-01-21T06:52:57.887Z,-2.41
2023-01-21T06:53:57.875Z,-2.40
2023-01-21T06:54:57.862Z,-2.40
2023-01-21T06:55:57.870Z,-2.38
2023-01-21T06:56:57.843Z,-2.38
2023-01-21T06:57:57.847Z,-2.38
2023-01-21T06:58:57.821Z,-2.40
2023-01-21T06:59:57.802Z,-2.40
2023-01-21T07:00:57.809Z,-2.40
2023-01-21T07:01:57.843Z,-2.40
2023-01-21T07:02:57.775Z,-2.37
2023-01-21T07:03:57.765Z,-2.40
2023-01-21T07:04:59.165Z,-2.38
2023-01-21T07:05:57.773Z,-2.41
2023-01-21T07:06:57.720Z,-2.41
2023-01-21T07:07:57.709Z,-2.41
2023-01-21T07:08:57.694Z,-2.41
2023-01-21T07:09:57.681Z,-2.37
2023-01-21T07:10:57.683Z,-2.41
2023-01-21T07:11:57.657Z,-2.40
2023-01-21T07:12:57.647Z,-2.40
2023-01-21T07:13:57.651Z,-2.35
2023-01-21T07:14:57.622Z,-2.37
2023-01-21T07:15:57.645Z,-2.37
2023-01-21T07:16:57.593Z,-2.40
2023-01-21T07:17:57.587Z,-2.40
2023-01-21T07:18:57.572Z,-2.40
2023-01-21T07:19:57.560Z,-2.37
2023-01-21T07:20:57.561Z,-2.37
2023-01-21T07:21:57.536Z,-2.34
2023-01-21T07:22:57.522Z,-2.37
2023-01-21T07:23:57.512Z,-2.40
2023-01-21T07:24:57.499Z,-2.34
2023-01-21T07:25:57.500Z,-2.32
2023-01-21T07:26:57.467Z,-2.34
2023-01-21T07:27:57.483Z,-2.30
2023-01-21T07:28:57.455Z,-2.28
2023-01-21T07:29:57.476Z,-2.30
2023-01-21T07:30:57.501Z,-2.35
2023-01-21T07:31:57.496Z,-2.32
2023-01-21T07:32:57.405Z,-2.32
2023-01-21T07:33:57.397Z,-2.35
2023-01-21T07:34:57.380Z,-2.32
2023-01-21T07:35:57.374Z,-2.30
2023-01-21T07:36:57.356Z,-2.26
2023-01-21T07:37:57.338Z,-2.21
2023-01-21T07:38:57.328Z,-2.18
2023-01-21T07:39:57.316Z,-2.12
2023-01-21T07:40:57.311Z,-2.13
2023-01-21T07:41:57.287Z,-2.16
2023-01-21T07:42:57.289Z,-2.22
2023-01-21T07:43:57.265Z,-2.21
2023-01-21T07:44:57.262Z,-2.22
2023-01-21T07:45:59.923Z,-2.19
2023-01-21T07:46:57.229Z,-2.18
2023-01-21T07:47:57.216Z,-2.16
2023-01-21T07:48:57.209Z,-2.16
2023-01-21T07:49:57.185Z,-2.12
2023-01-21T07:50:57.225Z,-2.15
2023-01-21T07:51:57.167Z,-2.16
2023-01-21T07:52:57.153Z,-2.12
2023-01-21T07:53:57.142Z,-2.10
2023-01-21T07:54:57.128Z,-2.04
2023-01-21T07:55:57.148Z,-1.95
2023-01-21T07:56:57.103Z,-1.90
2023-01-21T07:57:57.091Z,-1.86
2023-01-21T07:58:57.084Z,-1.84
2023-01-21T07:59:57.069Z,-1.83
2023-01-21T08:00:57.075Z,-1.79
2023-01-21T08:01:57.196Z,-1.74
2023-01-21T08:02:57.085Z,-1.69
2023-01-21T08:03:57.020Z,-1.65
2023-01-21T08:04:57.011Z,-1.65
2023-01-21T08:05:57.013Z,-1.56
2023-01-21T08:06:57.104Z,-1.56
2023-01-21T08:07:56.971Z,-1.51
2023-01-21T08:08:56.953Z,-1.47
2023-01-21T08:09:56.943Z,-1.40
2023-01-21T08:10:56.927Z,-1.30
2023-01-21T08:11:56.947Z,-1.22
2023-01-21T08:12:56.915Z,-1.23
2023-01-21T08:13:56.892Z,-1.15
2023-01-21T08:14:56.900Z,-1.09
2023-01-21T08:15:56.963Z,-1.12
2023-01-21T08:16:56.872Z,-1.11
2023-01-21T08:17:56.880Z,-1.07
2023-01-21T08:18:56.835Z,-1.01
2023-01-21T08:19:56.825Z,-0.99
2023-01-21T08:20:56.823Z,-0.93
2023-01-21T08:21:56.814Z,-0.90
2023-01-21T08:22:56.787Z,-0.80
2023-01-21T08:23:56.770Z,-0.78
2023-01-21T08:24:56.759Z,-0.75
2023-01-21T08:25:56.744Z,-0.72
2023-01-21T08:26:56.752Z,-0.68
2023-01-21T08:27:56.721Z,-0.70
2023-01-21T08:28:56.705Z,-0.71
2023-01-21T08:29:56.699Z,-0.68
2023-01-21T08:30:56.692Z,-0.74
2023-01-21T08:31:56.758Z,-0.72
2023-01-21T08:32:56.655Z,-0.70
2023-01-21T08:33:56.668Z,-0.74
2023-01-21T08:34:56.639Z,-0.78
2023-01-21T08:35:56.623Z,-0.83
2023-01-21T08:36:56.628Z,-0.82
2023-01-21T08:37:56.603Z,-0.75
2023-01-21T08:38:56.583Z,-0.70
2023-01-21T08:39:56.571Z,-0.59
2023-01-21T08:40:56.552Z,-0.50
2023-01-21T08:41:56.558Z,-0.35
2023-01-21T08:42:56.534Z,-0.26
2023-01-21T08:43:56.523Z,-0.13
2023-01-21T08:44:56.506Z,-0.03
2023-01-21T08:45:56.569Z,0.07
2023-01-21T08:46:56.493Z,0.18
2023-01-21T08:47:56.475Z,0.18
2023-01-21T08:48:56.456Z,0.29
2023-01-21T08:49:56.467Z,0.44
2023-01-21T08:50:56.501Z,0.58
2023-01-21T08:51:56.436Z,0.68
2023-01-21T08:52:56.411Z,0.69
2023-01-21T08:53:56.403Z,0.80
2023-01-21T08:54:56.386Z,0.92
2023-01-21T08:55:56.366Z,1.05
2023-01-21T08:56:56.366Z,1.16
2023-01-21T08:57:56.339Z,1.22
2023-01-21T08:58:56.329Z,1.12
2023-01-21T08:59:56.320Z,1.13
2023-01-21T09:00:56.335Z,1.20
2023-01-21T09:01:56.391Z,1.23
2023-01-21T09:02:56.299Z,1.17
2023-01-21T09:03:56.271Z,0.96
2023-01-21T09:04:56.250Z,0.86
2023-01-21T09:05:56.265Z,0.65
2023-01-21T09:06:56.242Z,0.49
2023-01-21T09:07:58.153Z,0.26
2023-01-21T09:08:56.207Z,0.23
2023-01-21T09:09:56.195Z,0.16
2023-01-21T09:10:56.182Z,0.07
2023-01-21T09:11:56.177Z,0.01
2023-01-21T09:12:56.153Z,0.03
2023-01-21T09:13:56.139Z,-0.02
2023-01-21T09:14:56.126Z,0.01
2023-01-21T09:15:56.112Z,0.05
2023-01-21T09:16:56.116Z,0.03
2023-01-21T09:17:56.087Z,0.03
2023-01-21T09:18:56.076Z,-0.06
2023-01-21T09:19:56.067Z,-0.13
2023-01-21T09:20:56.048Z,-0.14
2023-01-21T09:21:56.077Z,-0.15
2023-01-21T09:22:56.029Z,-0.11
2023-01-21T09:23:56.018Z,-0.13
2023-01-21T09:24:55.996Z,-0.10
2023-01-21T09:25:55.985Z,-0.15
2023-01-21T09:26:56.000Z,-0.13
2023-01-21T09:27:55.972Z,-0.08
2023-01-21T09:28:55.952Z,-0.07
2023-01-21T09:29:55.945Z,-0.07
2023-01-21T09:30:55.979Z,-0.06
2023-01-21T09:31:55.974Z,0.00
2023-01-21T09:32:55.925Z,0.01
2023-01-21T09:33:55.888Z,0.01
2023-01-21T09:34:55.878Z,-0.11
2023-01-21T09:35:55.861Z,-0.17
2023-01-21T09:36:55.850Z,-0.14
2023-01-21T09:37:55.875Z,-0.10
2023-01-21T09:38:55.825Z,0.00
2023-01-21T09:39:55.829Z,0.00
2023-01-21T09:40:55.798Z,-0.06
2023-01-21T09:41:55.790Z,0.00
2023-01-21T09:42:55.789Z,0.01
2023-01-21T09:43:55.759Z,0.11
2023-01-21T09:44:55.777Z,0.12
2023-01-21T09:45:55.735Z,0.12
2023-01-21T09:46:55.727Z,0.01
2023-01-21T09:47:55.732Z,0.04
2023-01-21T09:48:55.698Z,0.07
2023-01-21T09:49:55.698Z,0.12
2023-01-21T09:50:55.775Z,0.21
2023-01-21T09:51:55.665Z,0.23
2023-01-21T09:52:55.665Z,0.36
2023-01-21T09:53:55.675Z,0.40
2023-01-21T09:54:55.627Z,0.39
2023-01-21T09:55:55.619Z,0.39
2023-01-21T09:56:55.611Z,0.36
2023-01-21T09:57:55.608Z,0.34
2023-01-21T09:58:55.572Z,0.36
2023-01-21T09:59:55.559Z,0.40
2023-01-21T10:00:55.634Z,0.41
2023-01-21T10:01:55.539Z,0.44
2023-01-21T10:02:55.534Z,0.52
2023-01-21T10:03:55.516Z,0.56
2023-01-21T10:04:55.508Z,0.58
2023-01-21T10:05:55.486Z,0.60
2023-01-21T10:06:55.483Z,0.58
2023-01-21T10:07:55.472Z,0.50
2023-01-21T10:08:55.446Z,0.44
2023-01-21T10:09:55.464Z,0.41
2023-01-21T10:10:55.432Z,0.34
2023-01-21T10:11:55.421Z,0.39
2023-01-21T10:12:55.417Z,0.41
2023-01-21T10:13:55.419Z,0.40
2023-01-21T10:14:55.423Z,0.36
2023-01-21T10:15:55.392Z,0.28
2023-01-21T10:16:55.462Z,0.29
2023-01-21T10:17:55.403Z,0.29
2023-01-21T10:18:55.350Z,0.34
2023-01-21T10:19:55.320Z,0.37
2023-01-21T10:20:55.302Z,0.44
2023-01-21T10:21:55.285Z,0.49
2023-01-21T10:22:55.295Z,0.56
2023-01-21T10:23:55.259Z,0.62
2023-01-21T10:24:55.247Z,0.65
2023-01-21T10:25:55.260Z,0.73
2023-01-21T10:26:55.224Z,0.76
2023-01-21T10:27:55.227Z,0.77
2023-01-21T10:28:55.198Z,0.68
2023-01-21T10:29:55.183Z,0.60
2023-01-21T10:30:55.291Z,0.62
2023-01-21T10:31:55.221Z,0.59
2023-01-21T10:32:55.168Z,0.63
2023-01-21T10:33:55.131Z,0.73
2023-01-21T10:34:55.120Z,0.73
2023-01-21T10:35:55.110Z,0.77
2023-01-21T10:36:55.109Z,0.78
2023-01-21T10:37:55.101Z,0.77
2023-01-21T10:38:55.072Z,0.74
2023-01-21T10:39:55.058Z,0.76
2023-01-21T10:40:55.043Z,0.78
2023-01-21T10:41:55.072Z,0.84
2023-01-21T10:42:55.023Z,0.83
2023-01-21T10:43:55.062Z,0.88
2023-01-21T10:44:54.997Z,0.91
2023-01-21T10:45:55.021Z,0.91
2023-01-21T10:46:54.986Z,1.02
2023-01-21T10:47:54.969Z,0.96
2023-01-21T10:48:54.957Z,0.96
2023-01-21T10:49:54.937Z,1.01
2023-01-21T10:50:55.005Z,0.98
2023-01-21T10:51:54.913Z,0.81
2023-01-21T10:52:54.903Z,0.80
2023-01-21T10:53:54.910Z,0.80
2023-01-21T10:54:54.877Z,0.86
2023-01-21T10:55:54.855Z,0.86
2023-01-21T10:56:54.847Z,0.92
2023-01-21T10:57:54.851Z,0.99
2023-01-21T10:58:54.838Z,0.98
2023-01-21T10:59:54.811Z,0.99
2023-01-21T11:00:54.794Z,0.98
2023-01-21T11:01:54.786Z,0.92
2023-01-21T11:02:54.823Z,0.92
2023-01-21T11:03:54.767Z,0.96
2023-01-21T11:04:54.751Z,0.99
2023-01-21T11:05:54.733Z,1.02
2023-01-21T11:06:54.723Z,0.98
2023-01-21T11:07:54.717Z,1.01
2023-01-21T11:08:54.729Z,1.01
2023-01-21T11:09:54.688Z,1.06
2023-01-21T11:10:54.678Z,1.02
2023-01-21T11:11:54.656Z,0.98
2023-01-21T11:12:54.645Z,0.95
2023-01-21T11:13:54.669Z,0.91
2023-01-21T11:14:54.626Z,0.92
2023-01-21T11:15:54.654Z,0.94
2023-01-21T11:16:54.606Z,0.95
2023-01-21T11:17:54.585Z,0.92
2023-01-21T11:18:54.592Z,0.99
2023-01-21T11:19:54.556Z,1.06
2023-01-21T11:20:54.549Z,1.13
2023-01-21T11:21:54.526Z,1.16
2023-01-21T11:22:54.533Z,1.24
2023-01-21T11:23:54.519Z,1.32
2023-01-21T11:24:54.492Z,1.26
2023-01-21T11:25:54.505Z,1.17
2023-01-21T11:26:54.474Z,1.23
2023-01-21T11:27:54.457Z,1.24
2023-01-21T11:28:54.456Z,1.23
2023-01-21T11:29:54.468Z,1.26
2023-01-21T11:30:54.795Z,1.22
2023-01-21T11:31:54.442Z,1.20
2023-01-21T11:32:54.409Z,1.19
2023-01-21T11:33:54.398Z,1.16
2023-01-21T11:34:54.366Z,1.20
2023-01-21T11:35:54.356Z,1.20
2023-01-21T11:36:54.343Z,1.20
2023-01-21T11:37:54.343Z,1.17
2023-01-21T11:38:54.343Z,1.13
2023-01-21T11:39:54.307Z,1.10
2023-01-21T11:40:54.295Z,1.14
2023-01-21T11:41:54.277Z,1.06
2023-01-21T11:42:54.265Z,1.05
2023-01-21T11:43:54.261Z,1.13
2023-01-21T11:44:54.284Z,1.13
2023-01-21T11:45:54.256Z,1.17
2023-01-21T11:46:54.229Z,1.20
2023-01-21T11:47:54.212Z,1.30
2023-01-21T11:48:54.205Z,1.30
2023-01-21T11:49:54.217Z,1.30
2023-01-21T11:50:54.243Z,1.35
2023-01-21T11:51:54.150Z,1.42
2023-01-21T11:52:54.136Z,1.41
2023-01-21T11:53:54.123Z,1.41
2023-01-21T11:54:54.157Z,1.37
2023-01-21T11:55:54.124Z,1.31
2023-01-21T11:56:54.108Z,1.26
2023-01-21T11:57:54.087Z,1.24
2023-01-21T11:58:54.086Z,1.28
2023-01-21T11:59:54.092Z,1.26
2023-01-21T12:00:54.041Z,1.32
2023-01-21T12:01:54.103Z,1.32
2023-01-21T12:02:54.088Z,1.35
2023-01-21T12:03:54.062Z,1.32
2023-01-21T12:04:54.006Z,1.24
2023-01-21T12:05:53.971Z,1.31
2023-01-21T12:06:53.963Z,1.28
2023-01-21T12:07:53.951Z,1.26
2023-01-21T12:08:53.935Z,1.32
2023-01-21T12:09:53.941Z,1.35
2023-01-21T12:10:53.916Z,1.44
2023-01-21T12:11:53.895Z,1.48
2023-01-21T12:12:53.888Z,1.38
2023-01-21T12:13:53.876Z,1.40
2023-01-21T12:14:53.875Z,1.45
2023-01-21T12:15:53.947Z,1.45
2023-01-21T12:16:53.918Z,1.52
2023-01-21T12:17:53.839Z,1.59
2023-01-21T12:18:53.813Z,1.62
2023-01-21T12:19:53.812Z,1.66
2023-01-21T12:20:53.782Z,1.66
2023-01-21T12:21:53.769Z,1.59
2023-01-21T12:22:53.763Z,1.53
2023-01-21T12:23:54.533Z,1.58
2023-01-21T12:24:53.771Z,1.55
2023-01-21T12:25:53.725Z,1.66
2023-01-21T12:26:53.708Z,1.70
2023-01-21T12:27:53.697Z,1.63
2023-01-21T12:28:53.686Z,1.55
2023-01-21T12:29:53.685Z,1.53
2023-01-21T12:30:53.750Z,1.58
2023-01-21T12:31:53.659Z,1.58
2023-01-21T12:32:53.633Z,1.68
2023-01-21T12:33:53.642Z,1.78
2023-01-21T12:34:53.648Z,1.73
2023-01-21T12:35:53.596Z,1.70
2023-01-21T12:36:53.644Z,1.67
2023-01-21T12:37:53.571Z,1.68
2023-01-21T12:38:53.558Z,1.60
2023-01-21T12:39:53.572Z,1.67
2023-01-21T12:40:53.531Z,1.76
2023-01-21T12:41:53.520Z,1.84
2023-01-21T12:42:53.512Z,1.88
2023-01-21T12:43:53.492Z,1.91
2023-01-21T12:44:53.492Z,1.87
2023-01-21T12:45:53.479Z,1.87
2023-01-21T12:46:53.537Z,1.78
2023-01-21T12:47:53.447Z,1.81
2023-01-21T12:48:53.431Z,1.97
2023-01-21T12:49:53.471Z,2.04
2023-01-21T12:50:53.456Z,2.38
2023-01-21T12:51:53.393Z,2.56
2023-01-21T12:52:53.379Z,2.56
2023-01-21T12:53:53.365Z,2.51
2023-01-21T12:54:53.385Z,2.57
2023-01-21T12:55:53.340Z,2.62
2023-01-21T12:56:53.332Z,2.56
2023-01-21T12:57:53.312Z,2.67
2023-01-21T12:58:53.300Z,2.65
2023-01-21T12:59:53.294Z,2.54
2023-01-21T13:00:53.343Z,2.50
2023-01-21T13:01:53.352Z,2.49
2023-01-21T13:02:54.150Z,2.49